Terminal Aerodrome Forecast
Issued by NWS Hastings, NE

Home | Current Version | Previous Version | Text Only | Print | Product List | Glossary On
Versions: 1 2 3 4 5 6 7 8 9 10 11 12 13 14
000
FTUS45 KGID 110520
TAFEAR
TAF
KEAR 110520Z 1106/1206 28010KT P6SM SCT100
     FM111000 30014KT P6SM FEW250 WS010/33048KT
     FM111600 31021G33KT P6SM BKN100
     FM111800 33027G38KT P6SM BKN080
     FM112300 33019G25KT P6SM BKN040
     FM120200 34013KT P6SM SCT040=

USA.gov is the U.S. government's official web portal to all federal, state and local government web resources and services.